Carmel — 9HKK8 — position and weather

sailwx.info

Track history (hours):
 
Tides and Currents Weather Stations Pressure Air Temp Water Temp Dewpoint Dewpoint Depression Visibility Wind Speed Wind Dir Waves Ship Positions

Carmel

Last reported at 2018-May-01 07:55 UTC. Time now 2018-May-25 18:55 UTC.
Position N 01°16' E 103°23'.
Warning: this ship's position is 24 days out of date.

Length 244 m; draft 8.2 m.

Type: Ship. MMSI: 249583000.

Date/timePositionNaut miles runAvg speedWind from/ knotsBaromVisibWave heightAir tempDewpointWater temp
2018-May-01 07:55N 01°16' E 103°23'4 9.8
2018-May-01 07:29N 01°14' E 103°26'5 9.4
2018-May-01 06:57N 01°13' E 103°31'4 9.2
2018-May-01 06:30N 01°12' E 103°35'5 8.9
2018-May-01 06:00N 01°11' E 103°40'3 6.9
2018-May-01 05:30N 01°09' E 103°42'5 9.8
2018-May-01 05:00N 01°10' E 103°47'611.8
2018-May-01 04:30N 01°13' E 103°53'5 9.0
2018-May-01 04:00N 01°14' E 103°57'4 7.9
2018-May-01 03:30N 01°16' E 104°01'510.2
2018-May-01 03:00N 01°16' E 104°06'5 9.8
2018-May-01 02:30N 01°17' E 104°10'510.0
2018-May-01 01:58N 01°18' E 104°16'5 9.8
2018-May-01 01:29N 01°19' E 104°20'5 9.4
2018-May-01 01:00N 01°22' E 104°24'5 8.7
2018-May-01 00:29N 01°25' E 104°27'5 9.5
2018-Apr-30 23:59N 01°28' E 104°31'2 0.2
2018-Apr-30 10:07N 01°26' E 104°33'612.4
2018-Apr-30 09:40N 01°24' E 104°27'412.8
2018-Apr-30 09:19N 01°21' E 104°24'412.6
2018-Apr-30 08:58N 01°18' E 104°21'3 6.2
2018-Apr-30 08:30N 01°20' E 104°19'0 0.3
2018-Apr-30 07:58N 01°20' E 104°19'0 0.0
2018-Apr-30 06:28N 01°20' E 104°19'0 0.1
2018-Apr-30 02:52N 01°20' E 104°18'0 0.0
2018-Apr-29 23:37N 01°20' E 104°18'0 0.3
2018-Apr-29 23:22N 01°20' E 104°19'0 0.1
2018-Apr-29 19:58N 01°20' E 104°19'0 0.0
2018-Apr-29 19:25N 01°20' E 104°19'0 0.0
2018-Apr-29 18:52N 01°20' E 104°19'0 0.0
2018-Apr-29 18:28N 01°20' E 104°19'0 0.0
2018-Apr-29 17:22N 01°20' E 104°19'0 0.0
2018-Apr-29 16:52N 01°20' E 104°19'0 0.2
2018-Apr-29 16:28N 01°20' E 104°19'0 0.1
2018-Apr-29 14:25N 01°20' E 104°18'0 0.0
2018-Apr-29 09:12N 01°20' E 104°19'0 0.2
2018-Apr-29 08:43N 01°20' E 104°19'0 1.3
2018-Apr-29 08:30N 01°20' E 104°19'2 3.5
2018-Apr-29 07:59N 01°20' E 104°21'2 5.0
2018-Apr-29 07:30N 01°22' E 104°22'4 7.9
2018-Apr-29 06:56N 01°25' E 104°26'2 1.5
2018-Apr-29 05:42N 01°27' E 104°27'3 9.1
2018-Apr-29 05:23N 01°25' E 104°24'3 7.1
2018-Apr-29 04:59N 01°23' E 104°22'2 3.9
2018-Apr-29 04:29N 01°21' E 104°24'4 7.2
2018-Apr-29 03:58N 01°19' E 104°21'611.2
2018-Apr-29 03:26N 01°17' E 104°16'612.8
2018-Apr-29 02:59N 01°16' E 104°10'612.7
2018-Apr-29 02:30N 01°15' E 104°04'611.0
2018-Apr-29 01:59N 01°14' E 103°58'4 6.8
2018-Apr-29 01:28N 01°17' E 103°56'0 0.4
2018-Apr-29 00:55N 01°17' E 103°56'0 0.0
2018-Apr-29 00:28N 01°17' E 103°56'0 0.0
2018-Apr-29 00:00N 01°17' E 103°56'0 0.0
2018-Apr-28 23:26N 01°17' E 103°56'0 0.0
2018-Apr-28 22:29N 01°17' E 103°56'0 0.2
2018-Apr-28 22:00N 01°17' E 103°56'0 0.2
2018-Apr-28 21:30N 01°17' E 103°56'0 0.0
2018-Apr-28 20:58N 01°17' E 103°56'0 0.1
2018-Apr-28 20:19N 01°17' E 103°56'0 0.2
2018-Apr-28 19:58N 01°17' E 103°56'0 0.0
2018-Apr-28 19:21N 01°17' E 103°56'0 0.0
2018-Apr-28 18:55N 01°17' E 103°56'0 0.0
2018-Apr-28 18:19N 01°17' E 103°56'0 0.0
2018-Apr-28 17:49N 01°17' E 103°56'0 0.1
2018-Apr-28 17:23N 01°17' E 103°56'0 0.1
2018-Apr-28 16:53N 01°17' E 103°56'0 0.2
2018-Apr-28 16:26N 01°17' E 103°56'0 0.0
2018-Apr-28 15:53N 01°17' E 103°56'0 0.0
2018-Apr-28 15:29N 01°17' E 103°56'0 0.1
2018-Apr-28 14:59N 01°17' E 103°56'0 0.0
2018-Apr-28 14:23N 01°17' E 103°56'0 0.0
2018-Apr-28 13:57N 01°17' E 103°56'0 0.0
2018-Apr-28 13:26N 01°17' E 103°56'0 0.0
2018-Apr-28 12:49N 01°17' E 103°56'0 0.0
2018-Apr-28 12:26N 01°17' E 103°56'0 0.0
2018-Apr-28 11:50N 01°17' E 103°56'0 0.0
2018-Apr-28 11:26N 01°17' E 103°56'0 0.0
2018-Apr-28 10:56N 01°17' E 103°56'0 0.0
2018-Apr-28 10:29N 01°17' E 103°56'0 0.1
2018-Apr-28 09:59N 01°17' E 103°56'0 0.1
2018-Apr-28 09:19N 01°17' E 103°56'0 0.0
2018-Apr-28 08:59N 01°17' E 103°56'0 0.1
2018-Apr-28 08:29N 01°17' E 103°56'0 0.0
2018-Apr-28 07:31N 01°17' E 103°56'0 0.0
2018-Apr-28 06:47N 01°17' E 103°56'0 0.2
2018-Apr-28 06:31N 01°17' E 103°56'0 0.1
2018-Apr-28 05:59N 01°17' E 103°56'0 0.0
2018-Apr-28 05:26N 01°17' E 103°56'0 0.0
2018-Apr-28 04:48N 01°17' E 103°56'0 0.3
2018-Apr-28 04:17N 01°17' E 103°56'0 0.0
2018-Apr-28 03:26N 01°17' E 103°56'0 0.1
2018-Apr-28 02:59N 01°17' E 103°56'0 0.0
2018-Apr-28 02:23N 01°17' E 103°56'0 0.1
2018-Apr-28 01:56N 01°17' E 103°56'0 0.0
2018-Apr-28 01:26N 01°17' E 103°56'0 0.0
2018-Apr-28 00:33N 01°17' E 103°56'0 0.1
2018-Apr-28 00:29N 01°17' E 103°56'0 0.0
2018-Apr-27 23:59N 01°17' E 103°56'0 0.0
2018-Apr-27 23:18N 01°17' E 103°56'0 0.0
2018-Apr-27 22:38N 01°17' E 103°56'0 0.0
2018-Apr-27 22:23N 01°17' E 103°56'0 0.1
2018-Apr-27 21:53N 01°17' E 103°56'0 0.1
2018-Apr-27 21:26N 01°17' E 103°56'0 0.1
2018-Apr-27 20:51N 01°17' E 103°56'0 0.1
2018-Apr-27 20:24N 01°17' E 103°56'0 0.0
2018-Apr-27 19:50N 01°17' E 103°56'0 0.0
2018-Apr-27 19:12N 01°17' E 103°56'0 0.1
2018-Apr-27 18:58N 01°17' E 103°56'0 0.0
2018-Apr-27 17:59N 01°17' E 103°56'0 0.0
2018-Apr-27 17:24N 01°17' E 103°56'0 0.1
2018-Apr-27 16:51N 01°17' E 103°56'0 0.1
2018-Apr-27 16:17N 01°17' E 103°56'0 0.1
2018-Apr-27 15:46N 01°17' E 103°56'0 0.1
2018-Apr-27 15:16N 01°17' E 103°56'0 0.1
2018-Apr-27 14:59N 01°17' E 103°56'0 0.2
2018-Apr-27 14:30N 01°17' E 103°56'2 2.4
2018-Apr-27 13:30N 01°15' E 103°58'2 3.8
2018-Apr-27 12:53N 01°15' E 104°00'3 7.6
2018-Apr-27 12:29N 01°14' E 103°57'510.1
2018-Apr-27 11:59N 01°12' E 103°53'3 5.3
2018-Apr-27 11:30N 01°11' E 103°50'4 7.3
2018-Apr-27 10:59N 01°09' E 103°47'4 8.1
2018-Apr-27 10:30N 01°06' E 103°44'4 8.2
2018-Apr-27 10:00N 01°04' E 103°41'3 7.1
2018-Apr-27 09:30N 01°04' E 103°38'4 7.5
2018-Apr-27 08:58N 01°06' E 103°34'3 7.2
2018-Apr-27 08:31N 01°08' E 103°32'4 7.7
2018-Apr-27 08:00N 01°12' E 103°32'3 6.2
2018-Apr-27 07:30N 01°15' E 103°32'4 7.2
2018-Apr-27 06:59N 01°18' E 103°33'3 5.8
2018-Apr-27 06:30N 01°21' E 103°33'0 0.0
2018-Apr-26 21:20N 01°21' E 103°33'0 0.0
2018-Apr-26 19:50N 01°21' E 103°33'0 0.0
2018-Apr-26 18:16N 01°21' E 103°33'0 0.0
2018-Apr-25 21:13N 01°21' E 103°33'0 0.0
2018-Apr-25 20:59N 01°21' E 103°33'0 0.7
2018-Apr-25 20:30N 01°21' E 103°33'2 5.0
2018-Apr-25 20:00N 01°18' E 103°33'4 8.3
2018-Apr-25 19:30N 01°15' E 103°32'3 5.1
2018-Apr-25 18:59N 01°15' E 103°29'1 2.1
2018-Apr-25 18:30N 01°15' E 103°28'0 0.2
2018-Apr-25 17:55N 01°15' E 103°28'0 0.0
2018-Apr-25 17:28N 01°15' E 103°28'0 0.1
2018-Apr-25 16:43N 01°15' E 103°28'0 0.2
2018-Apr-25 16:30N 01°15' E 103°28'0 0.3
2018-Apr-25 15:55N 01°15' E 103°28'0 0.2
2018-Apr-25 15:28N 01°15' E 103°29'0 0.1
2018-Apr-25 14:49N 01°15' E 103°29'0 0.2
2018-Apr-25 14:28N 01°15' E 103°29'0 0.0
2018-Apr-25 13:22N 01°15' E 103°29'0 0.0
2018-Apr-25 09:39N 01°15' E 103°29'0 0.0
2018-Apr-25 08:19N 01°15' E 103°29'0 0.2
2018-Apr-25 07:49N 01°15' E 103°28'0 0.1
2018-Apr-25 07:15N 01°15' E 103°28'0 0.1
2018-Apr-25 06:39N 01°15' E 103°28'0 0.2
2018-Apr-25 06:21N 01°15' E 103°28'0 0.0
2018-Apr-25 05:57N 01°15' E 103°28'0 0.1
2018-Apr-25 05:30N 01°15' E 103°28'0 0.1
2018-Apr-25 04:54N 01°15' E 103°28'0 0.1
2018-Apr-25 04:26N 01°15' E 103°28'0 0.0
2018-Apr-25 03:57N 01°15' E 103°28'0 0.0
2018-Apr-25 02:48N 01°15' E 103°28'0 0.0
2018-Apr-25 02:30N 01°15' E 103°28'0 0.0
2018-Apr-25 01:15N 01°15' E 103°28'0 0.0
2018-Apr-25 00:51N 01°15' E 103°28'0 0.0
2018-Apr-25 00:09N 01°15' E 103°28'0 0.1
2018-Apr-24 23:12N 01°15' E 103°28'0 0.2
2018-Apr-24 22:51N 01°15' E 103°28'0 0.3
2018-Apr-24 22:30N 01°15' E 103°28'0 0.2
2018-Apr-24 21:57N 01°15' E 103°28'0 0.0
2018-Apr-24 21:27N 01°15' E 103°28'0 0.0
2018-Apr-24 20:54N 01°15' E 103°28'0 0.2
2018-Apr-24 20:30N 01°15' E 103°28'0 0.0
2018-Apr-24 19:59N 01°15' E 103°28'0 0.0
2018-Apr-24 19:18N 01°15' E 103°28'0 0.3
2018-Apr-24 18:57N 01°15' E 103°28'0 0.2
2018-Apr-24 18:30N 01°15' E 103°28'0 0.1
2018-Apr-24 17:57N 01°15' E 103°28'0 0.1
2018-Apr-24 17:15N 01°15' E 103°28'0 0.0
2018-Apr-24 16:30N 01°15' E 103°28'0 0.1
2018-Apr-24 15:57N 01°15' E 103°28'0 0.3
2018-Apr-24 15:21N 01°15' E 103°29'0 0.3
2018-Apr-24 14:39N 01°15' E 103°29'0 0.2
2018-Apr-24 14:24N 01°15' E 103°29'0 0.0
2018-Apr-24 13:54N 01°15' E 103°29'0 0.0
2018-Apr-24 13:27N 01°15' E 103°29'0 0.1
2018-Apr-24 12:15N 01°15' E 103°29'0 0.0
2018-Apr-24 11:42N 01°15' E 103°29'0 0.0
2018-Apr-24 11:18N 01°15' E 103°29'0 0.0
2018-Apr-24 10:57N 01°15' E 103°29'0 0.0
2018-Apr-24 09:33N 01°15' E 103°29'0 0.1
2018-Apr-24 09:09N 01°15' E 103°29'0 0.0
2018-Apr-24 08:54N 01°15' E 103°29'0 0.5
2018-Apr-24 08:30N 01°15' E 103°28'1 1.4
2018-Apr-24 07:59N 01°15' E 103°29'2 4.7
2018-Apr-24 07:30N 01°13' E 103°30'3 5.1
2018-Apr-24 06:56N 01°11' E 103°27'511.9
2018-Apr-24 06:30N 01°13' E 103°23'1011.7
2018-Apr-24 05:40N 01°19' E 103°16'211.9
2018-Apr-24 05:30N 01°21' E 103°14'  
Track history (hours):
 
Tides and Currents Weather Stations Pressure Air Temp Water Temp Dewpoint Dewpoint Depression Visibility Wind Speed Wind Dir Waves Ship Positions

Carmel

Last reported at 2018-May-01 07:55 UTC. Time now 2018-May-25 18:55 UTC.
Position N 01°16' E 103°23'.
Warning: this ship's position is 24 days out of date.

Length 244 m; draft 8.2 m.

Type: Ship. MMSI: 249583000.

Date/timePositionNaut miles runAvg speedWind from/ knotsBaromVisibWave heightAir tempDewpointWater temp
2018-May-01 07:55N 01°16' E 103°23'4 9.8
2018-May-01 07:29N 01°14' E 103°26'5 9.4
2018-May-01 06:57N 01°13' E 103°31'4 9.2
2018-May-01 06:30N 01°12' E 103°35'5 8.9
2018-May-01 06:00N 01°11' E 103°40'3 6.9
2018-May-01 05:30N 01°09' E 103°42'5 9.8
2018-May-01 05:00N 01°10' E 103°47'611.8
2018-May-01 04:30N 01°13' E 103°53'5 9.0
2018-May-01 04:00N 01°14' E 103°57'4 7.9
2018-May-01 03:30N 01°16' E 104°01'510.2
2018-May-01 03:00N 01°16' E 104°06'5 9.8
2018-May-01 02:30N 01°17' E 104°10'510.0
2018-May-01 01:58N 01°18' E 104°16'5 9.8
2018-May-01 01:29N 01°19' E 104°20'5 9.4
2018-May-01 01:00N 01°22' E 104°24'5 8.7
2018-May-01 00:29N 01°25' E 104°27'5 9.5
2018-Apr-30 23:59N 01°28' E 104°31'2 0.2
2018-Apr-30 10:07N 01°26' E 104°33'612.4
2018-Apr-30 09:40N 01°24' E 104°27'412.8
2018-Apr-30 09:19N 01°21' E 104°24'412.6
2018-Apr-30 08:58N 01°18' E 104°21'3 6.2
2018-Apr-30 08:30N 01°20' E 104°19'0 0.3
2018-Apr-30 07:58N 01°20' E 104°19'0 0.0
2018-Apr-30 06:28N 01°20' E 104°19'0 0.1
2018-Apr-30 02:52N 01°20' E 104°18'0 0.0
2018-Apr-29 23:37N 01°20' E 104°18'0 0.3
2018-Apr-29 23:22N 01°20' E 104°19'0 0.1
2018-Apr-29 19:58N 01°20' E 104°19'0 0.0
2018-Apr-29 19:25N 01°20' E 104°19'0 0.0
2018-Apr-29 18:52N 01°20' E 104°19'0 0.0
2018-Apr-29 18:28N 01°20' E 104°19'0 0.0
2018-Apr-29 17:22N 01°20' E 104°19'0 0.0
2018-Apr-29 16:52N 01°20' E 104°19'0 0.2
2018-Apr-29 16:28N 01°20' E 104°19'0 0.1
2018-Apr-29 14:25N 01°20' E 104°18'0 0.0
2018-Apr-29 09:12N 01°20' E 104°19'0 0.2
2018-Apr-29 08:43N 01°20' E 104°19'0 1.3
2018-Apr-29 08:30N 01°20' E 104°19'2 3.5
2018-Apr-29 07:59N 01°20' E 104°21'2 5.0
2018-Apr-29 07:30N 01°22' E 104°22'4 7.9
2018-Apr-29 06:56N 01°25' E 104°26'2 1.5
2018-Apr-29 05:42N 01°27' E 104°27'3 9.1
2018-Apr-29 05:23N 01°25' E 104°24'3 7.1
2018-Apr-29 04:59N 01°23' E 104°22'2 3.9
2018-Apr-29 04:29N 01°21' E 104°24'4 7.2
2018-Apr-29 03:58N 01°19' E 104°21'611.2
2018-Apr-29 03:26N 01°17' E 104°16'612.8
2018-Apr-29 02:59N 01°16' E 104°10'612.7
2018-Apr-29 02:30N 01°15' E 104°04'611.0
2018-Apr-29 01:59N 01°14' E 103°58'4 6.8
2018-Apr-29 01:28N 01°17' E 103°56'0 0.4
2018-Apr-29 00:55N 01°17' E 103°56'0 0.0
2018-Apr-29 00:28N 01°17' E 103°56'0 0.0
2018-Apr-29 00:00N 01°17' E 103°56'0 0.0
2018-Apr-28 23:26N 01°17' E 103°56'0 0.0
2018-Apr-28 22:29N 01°17' E 103°56'0 0.2
2018-Apr-28 22:00N 01°17' E 103°56'0 0.2
2018-Apr-28 21:30N 01°17' E 103°56'0 0.0
2018-Apr-28 20:58N 01°17' E 103°56'0 0.1
2018-Apr-28 20:19N 01°17' E 103°56'0 0.2
2018-Apr-28 19:58N 01°17' E 103°56'0 0.0
2018-Apr-28 19:21N 01°17' E 103°56'0 0.0
2018-Apr-28 18:55N 01°17' E 103°56'0 0.0
2018-Apr-28 18:19N 01°17' E 103°56'0 0.0
2018-Apr-28 17:49N 01°17' E 103°56'0 0.1
2018-Apr-28 17:23N 01°17' E 103°56'0 0.1
2018-Apr-28 16:53N 01°17' E 103°56'0 0.2
2018-Apr-28 16:26N 01°17' E 103°56'0 0.0
2018-Apr-28 15:53N 01°17' E 103°56'0 0.0
2018-Apr-28 15:29N 01°17' E 103°56'0 0.1
2018-Apr-28 14:59N 01°17' E 103°56'0 0.0
2018-Apr-28 14:23N 01°17' E 103°56'0 0.0
2018-Apr-28 13:57N 01°17' E 103°56'0 0.0
2018-Apr-28 13:26N 01°17' E 103°56'0 0.0
2018-Apr-28 12:49N 01°17' E 103°56'0 0.0
2018-Apr-28 12:26N 01°17' E 103°56'0 0.0
2018-Apr-28 11:50N 01°17' E 103°56'0 0.0
2018-Apr-28 11:26N 01°17' E 103°56'0 0.0
2018-Apr-28 10:56N 01°17' E 103°56'0 0.0
2018-Apr-28 10:29N 01°17' E 103°56'0 0.1
2018-Apr-28 09:59N 01°17' E 103°56'0 0.1
2018-Apr-28 09:19N 01°17' E 103°56'0 0.0
2018-Apr-28 08:59N 01°17' E 103°56'0 0.1
2018-Apr-28 08:29N 01°17' E 103°56'0 0.0
2018-Apr-28 07:31N 01°17' E 103°56'0 0.0
2018-Apr-28 06:47N 01°17' E 103°56'0 0.2
2018-Apr-28 06:31N 01°17' E 103°56'0 0.1
2018-Apr-28 05:59N 01°17' E 103°56'0 0.0
2018-Apr-28 05:26N 01°17' E 103°56'0 0.0
2018-Apr-28 04:48N 01°17' E 103°56'0 0.3
2018-Apr-28 04:17N 01°17' E 103°56'0 0.0
2018-Apr-28 03:26N 01°17' E 103°56'0 0.1
2018-Apr-28 02:59N 01°17' E 103°56'0 0.0
2018-Apr-28 02:23N 01°17' E 103°56'0 0.1
2018-Apr-28 01:56N 01°17' E 103°56'0 0.0
2018-Apr-28 01:26N 01°17' E 103°56'0 0.0
2018-Apr-28 00:33N 01°17' E 103°56'0 0.1
2018-Apr-28 00:29N 01°17' E 103°56'0 0.0
2018-Apr-27 23:59N 01°17' E 103°56'0 0.0
2018-Apr-27 23:18N 01°17' E 103°56'0 0.0
2018-Apr-27 22:38N 01°17' E 103°56'0 0.0
2018-Apr-27 22:23N 01°17' E 103°56'0 0.1
2018-Apr-27 21:53N 01°17' E 103°56'0 0.1
2018-Apr-27 21:26N 01°17' E 103°56'0 0.1
2018-Apr-27 20:51N 01°17' E 103°56'0 0.1
2018-Apr-27 20:24N 01°17' E 103°56'0 0.0
2018-Apr-27 19:50N 01°17' E 103°56'0 0.0
2018-Apr-27 19:12N 01°17' E 103°56'0 0.1
2018-Apr-27 18:58N 01°17' E 103°56'0 0.0
2018-Apr-27 17:59N 01°17' E 103°56'0 0.0
2018-Apr-27 17:24N 01°17' E 103°56'0 0.1
2018-Apr-27 16:51N 01°17' E 103°56'0 0.1
2018-Apr-27 16:17N 01°17' E 103°56'0 0.1
2018-Apr-27 15:46N 01°17' E 103°56'0 0.1
2018-Apr-27 15:16N 01°17' E 103°56'0 0.1
2018-Apr-27 14:59N 01°17' E 103°56'0 0.2
2018-Apr-27 14:30N 01°17' E 103°56'2 2.4
2018-Apr-27 13:30N 01°15' E 103°58'2 3.8
2018-Apr-27 12:53N 01°15' E 104°00'3 7.6
2018-Apr-27 12:29N 01°14' E 103°57'510.1
2018-Apr-27 11:59N 01°12' E 103°53'3 5.3
2018-Apr-27 11:30N 01°11' E 103°50'4 7.3
2018-Apr-27 10:59N 01°09' E 103°47'4 8.1
2018-Apr-27 10:30N 01°06' E 103°44'4 8.2
2018-Apr-27 10:00N 01°04' E 103°41'3 7.1
2018-Apr-27 09:30N 01°04' E 103°38'4 7.5
2018-Apr-27 08:58N 01°06' E 103°34'3 7.2
2018-Apr-27 08:31N 01°08' E 103°32'4 7.7
2018-Apr-27 08:00N 01°12' E 103°32'3 6.2
2018-Apr-27 07:30N 01°15' E 103°32'4 7.2
2018-Apr-27 06:59N 01°18' E 103°33'3 5.8
2018-Apr-27 06:30N 01°21' E 103°33'0 0.0
2018-Apr-26 21:20N 01°21' E 103°33'0 0.0
2018-Apr-26 19:50N 01°21' E 103°33'0 0.0
2018-Apr-26 18:16N 01°21' E 103°33'0 0.0
2018-Apr-25 21:13N 01°21' E 103°33'0 0.0
2018-Apr-25 20:59N 01°21' E 103°33'0 0.7
2018-Apr-25 20:30N 01°21' E 103°33'2 5.0
2018-Apr-25 20:00N 01°18' E 103°33'4 8.3
2018-Apr-25 19:30N 01°15' E 103°32'3 5.1
2018-Apr-25 18:59N 01°15' E 103°29'1 2.1
2018-Apr-25 18:30N 01°15' E 103°28'0 0.2
2018-Apr-25 17:55N 01°15' E 103°28'0 0.0
2018-Apr-25 17:28N 01°15' E 103°28'0 0.1
2018-Apr-25 16:43N 01°15' E 103°28'0 0.2
2018-Apr-25 16:30N 01°15' E 103°28'0 0.3
2018-Apr-25 15:55N 01°15' E 103°28'0 0.2
2018-Apr-25 15:28N 01°15' E 103°29'0 0.1
2018-Apr-25 14:49N 01°15' E 103°29'0 0.2
2018-Apr-25 14:28N 01°15' E 103°29'0 0.0
2018-Apr-25 13:22N 01°15' E 103°29'0 0.0
2018-Apr-25 09:39N 01°15' E 103°29'0 0.0
2018-Apr-25 08:19N 01°15' E 103°29'0 0.2
2018-Apr-25 07:49N 01°15' E 103°28'0 0.1
2018-Apr-25 07:15N 01°15' E 103°28'0 0.1
2018-Apr-25 06:39N 01°15' E 103°28'0 0.2
2018-Apr-25 06:21N 01°15' E 103°28'0 0.0
2018-Apr-25 05:57N 01°15' E 103°28'0 0.1
2018-Apr-25 05:30N 01°15' E 103°28'0 0.1
2018-Apr-25 04:54N 01°15' E 103°28'0 0.1
2018-Apr-25 04:26N 01°15' E 103°28'0 0.0
2018-Apr-25 03:57N 01°15' E 103°28'0 0.0
2018-Apr-25 02:48N 01°15' E 103°28'0 0.0
2018-Apr-25 02:30N 01°15' E 103°28'0 0.0
2018-Apr-25 01:15N 01°15' E 103°28'0 0.0
2018-Apr-25 00:51N 01°15' E 103°28'0 0.0
2018-Apr-25 00:09N 01°15' E 103°28'0 0.1
2018-Apr-24 23:12N 01°15' E 103°28'0 0.2
2018-Apr-24 22:51N 01°15' E 103°28'0 0.3
2018-Apr-24 22:30N 01°15' E 103°28'0 0.2
2018-Apr-24 21:57N 01°15' E 103°28'0 0.0
2018-Apr-24 21:27N 01°15' E 103°28'0 0.0
2018-Apr-24 20:54N 01°15' E 103°28'0 0.2
2018-Apr-24 20:30N 01°15' E 103°28'0 0.0
2018-Apr-24 19:59N 01°15' E 103°28'0 0.0
2018-Apr-24 19:18N 01°15' E 103°28'0 0.3
2018-Apr-24 18:57N 01°15' E 103°28'0 0.2
2018-Apr-24 18:30N 01°15' E 103°28'0 0.1
2018-Apr-24 17:57N 01°15' E 103°28'0 0.1
2018-Apr-24 17:15N 01°15' E 103°28'0 0.0
2018-Apr-24 16:30N 01°15' E 103°28'0 0.1
2018-Apr-24 15:57N 01°15' E 103°28'0 0.3
2018-Apr-24 15:21N 01°15' E 103°29'0 0.3
2018-Apr-24 14:39N 01°15' E 103°29'0 0.2
2018-Apr-24 14:24N 01°15' E 103°29'0 0.0
2018-Apr-24 13:54N 01°15' E 103°29'0 0.0
2018-Apr-24 13:27N 01°15' E 103°29'0 0.1
2018-Apr-24 12:15N 01°15' E 103°29'0 0.0
2018-Apr-24 11:42N 01°15' E 103°29'0 0.0
2018-Apr-24 11:18N 01°15' E 103°29'0 0.0
2018-Apr-24 10:57N 01°15' E 103°29'0 0.0
2018-Apr-24 09:33N 01°15' E 103°29'0 0.1
2018-Apr-24 09:09N 01°15' E 103°29'0 0.0
2018-Apr-24 08:54N 01°15' E 103°29'0 0.5
2018-Apr-24 08:30N 01°15' E 103°28'1 1.4
2018-Apr-24 07:59N 01°15' E 103°29'2 4.7
2018-Apr-24 07:30N 01°13' E 103°30'3 5.1
2018-Apr-24 06:56N 01°11' E 103°27'511.9
2018-Apr-24 06:30N 01°13' E 103°23'1011.7
2018-Apr-24 05:40N 01°19' E 103°16'211.9
2018-Apr-24 05:30N 01°21' E 103°14'  

Dump ship's entire track history